createdAt,value
2018-02-24T00:02:16.600Z,102366.22
2018-02-24T00:04:43.435Z,102373.42
2018-02-24T00:07:10.196Z,102370.39
2018-02-24T00:09:36.947Z,102361.44
2018-02-24T00:12:04.112Z,102369.17
2018-02-24T00:14:30.947Z,102366.14
2018-02-24T00:16:59.096Z,102366.51
2018-02-24T00:19:26.188Z,102372.50
2018-02-24T00:21:53.275Z,102372.96
2018-02-24T00:24:20.006Z,102375.61
2018-02-24T00:26:46.810Z,102368.03
2018-02-24T00:29:13.568Z,102368.25
2018-02-24T00:31:40.467Z,102364.94
2018-02-24T00:34:07.157Z,102370.68
2018-02-24T00:36:34.008Z,102367.14
2018-02-24T00:39:00.830Z,102355.70
2018-02-24T00:41:27.598Z,102359.33
2018-02-24T00:43:54.273Z,102362.61
2018-02-24T00:46:21.686Z,102367.16
2018-02-24T00:48:48.476Z,102364.19
2018-02-24T00:51:16.155Z,102362.63
2018-02-24T00:53:42.905Z,102364.83
2018-02-24T00:56:09.288Z,102378.48
2018-02-24T00:58:36.090Z,102374.84
2018-02-24T01:01:02.896Z,102377.19
2018-02-24T01:03:29.827Z,102382.25
2018-02-24T01:05:56.787Z,102388.45
2018-02-24T01:08:23.620Z,102386.84
2018-02-24T01:10:50.368Z,102393.34
2018-02-24T01:13:17.278Z,102393.71
2018-02-24T01:15:44.070Z,102397.89
2018-02-24T01:18:10.822Z,102401.67
2018-02-24T01:20:37.726Z,102399.84
2018-02-24T01:23:04.513Z,102403.88
2018-02-24T01:25:31.884Z,102402.48
2018-02-24T01:27:59.183Z,102392.22
2018-02-24T01:30:25.820Z,102402.14
2018-02-24T01:32:53.527Z,102405.61
2018-02-24T01:35:20.313Z,102411.47
2018-02-24T01:37:47.108Z,102402.94
2018-02-24T01:40:13.904Z,102399.55
2018-02-24T01:42:40.249Z,102401.95
2018-02-24T01:45:07.992Z,102405.34
2018-02-24T01:47:34.784Z,102402.06
2018-02-24T01:50:02.292Z,102407.13
2018-02-24T01:52:29.140Z,102401.27
2018-02-24T01:54:56.092Z,102401.27
2018-02-24T01:57:22.881Z,102394.48
2018-02-24T01:59:50.400Z,102388.92
2018-02-24T02:02:17.088Z,102394.84
2018-02-24T02:04:44.728Z,102391.44
2018-02-24T02:07:11.676Z,102387.31
2018-02-24T02:09:40.256Z,102400.02
2018-02-24T02:12:07.191Z,102404.58
2018-02-24T02:14:34.020Z,102408.30
2018-02-24T02:17:00.498Z,102406.70
2018-02-24T02:19:26.830Z,102410.52
2018-02-24T02:21:53.201Z,102408.73
2018-02-24T02:24:20.107Z,102409.69
2018-02-24T02:26:46.887Z,102413.56
2018-02-24T02:29:13.800Z,102414.62
2018-02-24T02:31:40.652Z,102421.38
2018-02-24T02:34:07.600Z,102420.45
2018-02-24T02:36:34.281Z,102419.47
2018-02-24T02:39:01.386Z,102420.59
2018-02-24T02:41:28.172Z,102424.25
2018-02-24T02:43:55.621Z,102420.22
2018-02-24T02:46:22.428Z,102419.11
2018-02-24T02:48:49.127Z,102416.87
2018-02-24T02:51:16.132Z,102416.02
2018-02-24T02:53:42.812Z,102415.62
2018-02-24T02:56:09.565Z,102416.16
2018-02-24T02:58:36.379Z,102416.95
2018-02-24T03:01:03.150Z,102421.52
2018-02-24T03:03:29.816Z,102424.45
2018-02-24T03:05:57.401Z,102425.06
2018-02-24T03:08:24.290Z,102427.25
2018-02-24T03:10:51.061Z,102427.70
2018-02-24T03:13:17.810Z,102430.37
2018-02-24T03:15:45.371Z,102434.28
2018-02-24T03:18:12.235Z,102430.84
2018-02-24T03:20:39.744Z,102427.92
2018-02-24T03:23:06.428Z,102435.34
2018-02-24T03:25:33.073Z,102438.38
2018-02-24T03:28:01.433Z,102435.09
2018-02-24T03:30:28.282Z,102437.33
2018-02-24T03:32:55.032Z,102434.27
2018-02-24T03:35:22.251Z,102442.03
2018-02-24T03:37:49.151Z,102441.70
2018-02-24T03:40:15.911Z,102443.61
2018-02-24T03:42:43.384Z,102439.50
2018-02-24T03:45:10.951Z,102443.16
2018-02-24T03:47:38.432Z,102438.47
2018-02-24T03:50:05.160Z,102436.30
2018-02-24T03:52:32.726Z,102440.94
2018-02-24T03:55:00.452Z,102436.89
2018-02-24T03:57:27.316Z,102440.66
2018-02-24T03:59:54.119Z,102444.27
2018-02-24T04:02:20.981Z,102440.66
2018-02-24T04:04:47.698Z,102443.16
2018-02-24T04:07:14.691Z,102451.17
2018-02-24T04:09:41.480Z,102446.58
2018-02-24T04:12:08.788Z,102452.52
2018-02-24T04:14:35.576Z,102452.39
2018-02-24T04:17:03.233Z,102448.50
2018-02-24T04:19:30.105Z,102449.85
2018-02-24T04:21:57.613Z,102452.75
2018-02-24T04:24:24.380Z,102449.39
2018-02-24T04:26:51.226Z,102452.25
2018-02-24T04:29:18.111Z,102453.11
2018-02-24T04:31:45.003Z,102449.67
2018-02-24T04:34:11.744Z,102456.39
2018-02-24T04:36:38.493Z,102463.50
2018-02-24T04:39:05.243Z,102453.67
2018-02-24T04:41:31.909Z,102461.22
2018-02-24T04:43:58.948Z,102461.99
2018-02-24T04:46:25.780Z,102466.53
2018-02-24T04:48:52.448Z,102466.50
2018-02-24T04:51:19.203Z,102464.19
2018-02-24T04:53:46.536Z,102468.41
2018-02-24T04:56:13.415Z,102466.98
2018-02-24T04:58:40.327Z,102472.69
2018-02-24T05:01:06.988Z,102475.45
2018-02-24T05:03:33.827Z,102475.62
2018-02-24T05:06:00.728Z,102472.25
2018-02-24T05:08:27.523Z,102475.94
2018-02-24T05:10:55.106Z,102484.42
2018-02-24T05:13:23.449Z,102477.53
2018-02-24T05:15:50.430Z,102472.00
2018-02-24T05:18:17.368Z,102472.44
2018-02-24T05:20:44.132Z,102475.11
2018-02-24T05:23:10.450Z,102479.27
2018-02-24T05:25:37.296Z,102484.91
2018-02-24T05:28:04.247Z,102491.63
2018-02-24T05:30:31.101Z,102487.47
2018-02-24T05:32:58.146Z,102491.55
2018-02-24T05:35:24.835Z,102492.84
2018-02-24T05:37:52.456Z,102496.92
2018-02-24T05:40:19.313Z,102492.91
2018-02-24T05:42:46.161Z,102497.73
2018-02-24T05:45:13.119Z,102496.48
2018-02-24T05:47:40.062Z,102500.00
2018-02-24T05:50:06.852Z,102489.42
2018-02-24T05:52:34.296Z,102488.19
2018-02-24T05:55:01.113Z,102490.82
2018-02-24T05:57:28.183Z,102487.55
2018-02-24T05:59:55.123Z,102480.82
2018-02-24T06:02:21.879Z,102487.44
2018-02-24T06:04:48.668Z,102493.37
2018-02-24T06:07:15.497Z,102496.00
2018-02-24T06:09:43.247Z,102497.52
2018-02-24T06:12:10.179Z,102502.65
2018-02-24T06:14:36.944Z,102495.73
2018-02-24T06:17:03.288Z,102498.57
2018-02-24T06:19:29.628Z,102510.30
2018-02-24T06:21:56.493Z,102510.52
2018-02-24T06:24:24.113Z,102515.89
2018-02-24T06:26:50.914Z,102517.54
2018-02-24T06:29:17.248Z,102518.86
2018-02-24T06:31:43.601Z,102520.64
2018-02-24T06:34:10.348Z,102517.84
2018-02-24T06:36:37.428Z,102518.21
2018-02-24T06:39:04.480Z,102518.14
2018-02-24T06:41:31.417Z,102524.30
2018-02-24T06:43:57.788Z,102521.39
2018-02-24T06:46:24.100Z,102513.03
2018-02-24T06:48:50.772Z,102525.59
2018-02-24T06:51:17.099Z,102524.20
2018-02-24T06:53:43.420Z,102529.19
2018-02-24T06:56:09.912Z,102530.80
2018-02-24T06:58:37.101Z,102527.72
2018-02-24T07:01:03.461Z,102539.08
2018-02-24T07:03:30.112Z,102543.30
2018-02-24T07:05:56.444Z,102541.25
2018-02-24T07:08:22.780Z,102540.71
2018-02-24T07:10:49.318Z,102539.02
2018-02-24T07:13:15.632Z,102542.64
2018-02-24T07:15:42.395Z,102539.27
2018-02-24T07:18:08.727Z,102539.18
2018-02-24T07:20:35.228Z,102541.72
2018-02-24T07:23:01.688Z,102534.66
2018-02-24T07:25:28.047Z,102540.09
2018-02-24T07:27:54.411Z,102541.00
2018-02-24T07:30:20.868Z,102540.90
2018-02-24T07:32:47.991Z,102556.69
2018-02-24T07:35:14.345Z,102555.87
2018-02-24T07:37:40.776Z,102559.53
2018-02-24T07:40:07.176Z,102553.72
2018-02-24T07:42:33.670Z,102562.48
2018-02-24T07:45:08.057Z,102564.09
2018-02-24T07:47:34.399Z,102564.61
2018-02-24T07:50:01.259Z,102561.39
2018-02-24T07:52:27.684Z,102559.30
2018-02-24T07:54:54.057Z,102568.80
2018-02-24T07:57:21.607Z,102565.48
2018-02-24T07:59:47.949Z,102573.26
2018-02-24T08:02:15.031Z,102574.06
2018-02-24T08:04:41.487Z,102580.80
2018-02-24T08:07:07.915Z,102575.48
2018-02-24T08:09:34.380Z,102566.93
2018-02-24T08:12:00.924Z,102570.48
2018-02-24T08:14:27.282Z,102570.41
2018-02-24T08:16:54.029Z,102580.86
2018-02-24T08:19:20.369Z,102581.77
2018-02-24T08:21:46.703Z,102585.69
2018-02-24T08:24:13.172Z,102591.91
2018-02-24T08:36:30.054Z,102587.92
2018-02-24T08:38:56.974Z,102591.12
2018-02-24T08:41:23.740Z,102598.19
2018-02-24T08:43:50.214Z,102599.42
2018-02-24T08:46:16.600Z,102604.34
2018-02-24T08:48:43.039Z,102607.23
2018-02-24T08:51:09.892Z,102610.61
2018-02-24T08:53:36.684Z,102618.02
2018-02-24T08:56:03.497Z,102612.04
2018-02-24T08:58:31.060Z,102609.58
2018-02-24T09:00:58.272Z,102616.55
2018-02-24T09:03:25.039Z,102612.77
2018-02-24T09:05:52.568Z,102617.13
2018-02-24T09:08:19.272Z,102618.02
2018-02-24T09:10:46.112Z,102622.52
2018-02-24T09:13:12.944Z,102620.42
2018-02-24T09:15:39.684Z,102621.84
2018-02-24T09:18:06.643Z,102616.43
2018-02-24T09:20:33.596Z,102612.58
2018-02-24T09:23:00.135Z,102617.92
2018-02-24T09:25:26.917Z,102620.37
2018-02-24T09:28:01.524Z,102619.97
2018-02-24T09:30:28.383Z,102616.55
2018-02-24T09:32:55.195Z,102629.41
2018-02-24T09:35:22.996Z,102621.87
2018-02-24T09:37:49.854Z,102622.05
2018-02-24T09:40:17.417Z,102620.42
2018-02-24T09:42:45.196Z,102623.43
2018-02-24T09:45:12.739Z,102615.66
2018-02-24T09:47:39.058Z,102619.61
2018-02-24T09:50:05.824Z,102621.55
2018-02-24T09:52:32.735Z,102623.44
2018-02-24T09:54:59.415Z,102632.20
2018-02-24T09:57:26.436Z,102629.03
2018-02-24T09:59:53.177Z,102628.59
2018-02-24T10:02:19.957Z,102621.45
2018-02-24T10:04:46.908Z,102622.53
2018-02-24T10:07:13.761Z,102624.13
2018-02-24T10:09:40.607Z,102620.54
2018-02-24T10:12:07.523Z,102624.02
2018-02-24T10:14:34.303Z,102625.74
2018-02-24T10:17:00.924Z,102620.36
2018-02-24T10:19:27.277Z,102630.11
2018-02-24T10:21:53.997Z,102626.32
2018-02-24T10:24:20.758Z,102619.05
2018-02-24T10:26:47.645Z,102623.34
2018-02-24T10:29:15.088Z,102622.02
2018-02-24T10:31:41.936Z,102628.55
2018-02-24T10:34:08.295Z,102635.62
2018-02-24T10:36:35.271Z,102625.91
2018-02-24T10:39:01.630Z,102633.86
2018-02-24T10:41:28.620Z,102636.83
2018-02-24T10:43:56.168Z,102638.32
2018-02-24T10:46:22.913Z,102633.11
2018-02-24T10:49:08.301Z,102637.20
2018-02-24T10:51:35.749Z,102637.48
2018-02-24T10:54:02.692Z,102634.93
2018-02-24T10:56:29.453Z,102633.62
2018-02-24T10:58:56.902Z,102642.51
2018-02-24T11:01:23.261Z,102636.22
2018-02-24T11:03:50.696Z,102627.61
2018-02-24T11:06:17.690Z,102626.25
2018-02-24T11:08:44.485Z,102634.46
2018-02-24T11:11:11.240Z,102639.23
2018-02-24T11:13:37.583Z,102632.13
2018-02-24T11:16:03.958Z,102634.96
2018-02-24T11:18:31.047Z,102631.16
2018-02-24T11:20:57.892Z,102633.06
2018-02-24T11:23:24.674Z,102625.20
2018-02-24T11:25:51.408Z,102628.91
2018-02-24T11:28:18.157Z,102622.50
2018-02-24T11:30:44.961Z,102619.38
2018-02-24T11:33:11.493Z,102620.81
2018-02-24T11:35:37.856Z,102613.30
2018-02-24T11:38:04.627Z,102613.86
2018-02-24T11:40:30.959Z,102607.08
2018-02-24T11:42:58.805Z,102599.37
2018-02-24T11:45:25.401Z,102613.39
2018-02-24T11:47:52.913Z,102616.53
2018-02-24T11:50:19.236Z,102620.34
2018-02-24T11:52:45.591Z,102622.60
2018-02-24T11:55:12.139Z,102617.95
2018-02-24T11:57:38.713Z,102619.42
2018-02-24T12:00:05.976Z,102617.64
2018-02-24T12:02:33.376Z,102616.86
2018-02-24T12:04:59.712Z,102611.87
2018-02-24T12:07:26.064Z,102610.05
2018-02-24T12:09:52.540Z,102617.61
2018-02-24T12:12:18.907Z,102624.40
2018-02-24T12:14:45.483Z,102623.81
2018-02-24T12:17:12.249Z,102623.09
2018-02-24T12:19:38.633Z,102621.95
2018-02-24T12:22:04.976Z,102619.16
2018-02-24T12:24:31.557Z,102621.73
2018-02-24T12:26:58.505Z,102622.80
2018-02-24T12:29:25.648Z,102619.34
2018-02-24T12:31:51.984Z,102618.17
2018-02-24T12:34:18.336Z,102616.41
2018-02-24T12:36:45.168Z,102613.44
2018-02-24T12:39:11.524Z,102621.22
2018-02-24T12:41:37.864Z,102622.61
2018-02-24T12:44:04.361Z,102625.69
2018-02-24T12:46:30.720Z,102625.84
2018-02-24T12:48:57.097Z,102622.46
2018-02-24T12:51:24.271Z,102615.02
2018-02-24T12:53:50.640Z,102612.63
2018-02-24T12:56:16.962Z,102617.63
2018-02-24T12:58:43.429Z,102611.42
2018-02-24T13:01:09.765Z,102620.92
2018-02-24T13:03:36.612Z,102620.33
2018-02-24T13:06:02.996Z,102614.57
2018-02-24T13:08:30.083Z,102617.69
2018-02-24T13:10:56.788Z,102612.78
2018-02-24T13:13:23.852Z,102620.59
2018-02-24T13:15:50.948Z,102621.14
2018-02-24T13:18:17.709Z,102615.56
2018-02-24T13:20:44.075Z,102613.41
2018-02-24T13:23:11.197Z,102615.63
2018-02-24T13:25:37.734Z,102609.37
2018-02-24T13:28:04.215Z,102614.09
2018-02-24T13:30:31.370Z,102612.70
2018-02-24T13:32:58.269Z,102610.96
2018-02-24T13:35:25.013Z,102610.28
2018-02-24T13:37:51.370Z,102604.36
2018-02-24T13:40:18.306Z,102605.12
2018-02-24T13:42:44.657Z,102607.84
2018-02-24T13:45:11.017Z,102608.84
2018-02-24T13:47:38.250Z,102605.77
2018-02-24T13:50:04.591Z,102610.24
2018-02-24T13:52:30.923Z,102607.28
2018-02-24T13:54:57.454Z,102605.06
2018-02-24T13:57:24.223Z,102608.36
2018-02-24T13:59:50.999Z,102602.58
2018-02-24T14:02:17.880Z,102606.52
2018-02-24T14:04:44.245Z,102607.11
2018-02-24T14:07:18.033Z,102606.47
2018-02-24T14:09:44.684Z,102604.52
2018-02-24T14:12:11.048Z,102607.83
2018-02-24T14:14:37.562Z,102603.76
2018-02-24T14:17:04.097Z,102607.42
2018-02-24T14:19:30.791Z,102606.88
2018-02-24T14:21:57.879Z,102604.02
2018-02-24T14:24:24.707Z,102603.47
2018-02-24T14:26:51.624Z,102593.28
2018-02-24T14:29:18.384Z,102606.66
2018-02-24T14:31:45.502Z,102593.30
2018-02-24T14:34:11.869Z,102605.36
2018-02-24T14:36:39.308Z,102596.37
2018-02-24T14:39:05.792Z,102594.36
2018-02-24T14:41:32.381Z,102597.94
2018-02-24T14:43:58.851Z,102599.56
2018-02-24T14:46:25.191Z,102591.43
2018-02-24T14:48:52.281Z,102595.87
2018-02-24T14:51:18.995Z,102588.77
2018-02-24T14:53:46.097Z,102595.44
2018-02-24T14:56:12.441Z,102596.94
2018-02-24T14:58:38.914Z,102591.59
2018-02-24T15:01:06.013Z,102594.45
2018-02-24T15:03:32.376Z,102600.20
2018-02-24T15:05:58.821Z,102593.39
2018-02-24T15:08:25.166Z,102603.80
2018-02-24T15:10:51.629Z,102600.05
2018-02-24T15:13:18.800Z,102603.72
2018-02-24T15:15:45.541Z,102599.32
2018-02-24T15:18:12.093Z,102594.27
2018-02-24T15:20:38.480Z,102590.67
2018-02-24T15:23:05.325Z,102592.28
2018-02-24T15:25:31.750Z,102593.20
2018-02-24T15:27:59.232Z,102595.84
2018-02-24T15:30:25.985Z,102594.12
2018-02-24T15:32:52.868Z,102599.80
2018-02-24T15:35:19.814Z,102598.95
2018-02-24T15:37:46.178Z,102595.00
2018-02-24T15:40:12.963Z,102595.14
2018-02-24T15:42:40.205Z,102595.29
2018-02-24T15:45:07.166Z,102601.02
2018-02-24T15:47:34.026Z,102595.33
2018-02-24T15:50:00.853Z,102586.64
2018-02-24T15:52:27.225Z,102595.80
2018-02-24T15:54:55.047Z,102592.55
2018-02-24T15:57:21.372Z,102594.01
2018-02-24T15:59:48.345Z,102595.52
2018-02-24T16:02:15.274Z,102601.20
2018-02-24T16:04:41.979Z,102603.91
2018-02-24T16:07:09.504Z,102608.41
2018-02-24T16:09:36.657Z,102616.11
2018-02-24T16:12:03.426Z,102612.19
2018-02-24T16:14:30.347Z,102613.98
2018-02-24T16:16:56.716Z,102613.24
2018-02-24T16:19:23.429Z,102609.28
2018-02-24T16:21:50.351Z,102617.91
2018-02-24T16:24:16.685Z,102625.20
2018-02-24T16:26:43.430Z,102626.73
2018-02-24T16:29:09.844Z,102621.41
2018-02-24T16:31:36.975Z,102629.39
2018-02-24T16:34:03.508Z,102621.92
2018-02-24T16:36:30.059Z,102625.95
2018-02-24T16:38:56.776Z,102631.73
2018-02-24T16:41:23.529Z,102630.55
2018-02-24T16:43:49.879Z,102631.33
2018-02-24T16:46:16.663Z,102639.62
2018-02-24T16:48:43.989Z,102642.48
2018-02-24T16:51:11.141Z,102647.59
2018-02-24T16:53:37.955Z,102648.99
2018-02-24T16:56:04.754Z,102657.34
2018-02-24T16:58:31.087Z,102650.42
2018-02-24T17:00:57.489Z,102656.58
2018-02-24T17:03:24.628Z,102654.38
2018-02-24T17:05:50.980Z,102662.93
2018-02-24T17:08:17.315Z,102666.52
2018-02-24T17:10:43.986Z,102669.42
2018-02-24T17:13:11.347Z,102673.52
2018-02-24T17:15:38.490Z,102670.88
2018-02-24T17:18:05.131Z,102678.40
2018-02-24T17:20:31.481Z,102686.12
2018-02-24T17:22:57.851Z,102686.77
2018-02-24T17:25:24.451Z,102687.58
2018-02-24T17:27:51.229Z,102696.58
2018-02-24T17:30:18.613Z,102704.06
2018-02-24T17:32:44.980Z,102709.74
2018-02-24T17:35:11.550Z,102715.19
2018-02-24T17:37:38.009Z,102709.11
2018-02-24T17:40:05.126Z,102712.28
2018-02-24T17:42:31.640Z,102716.45
2018-02-24T17:44:58.017Z,102717.77
2018-02-24T17:47:24.372Z,102720.91
2018-02-24T17:49:51.588Z,102726.56
2018-02-24T17:52:17.922Z,102733.73
2018-02-24T17:54:44.301Z,102739.52
2018-02-24T17:57:11.662Z,102731.02
2018-02-24T17:59:38.753Z,102731.84
2018-02-24T18:02:05.167Z,102743.34
2018-02-24T18:04:32.662Z,102746.42
2018-02-24T18:06:59.038Z,102745.44
2018-02-24T18:09:25.414Z,102748.98
2018-02-24T18:11:52.325Z,102750.75
2018-02-24T18:14:18.733Z,102756.02
2018-02-24T18:16:45.082Z,102755.52
2018-02-24T18:19:11.637Z,102759.81
2018-02-24T18:21:38.475Z,102757.95
2018-02-24T18:24:04.899Z,102757.92
2018-02-24T18:26:31.852Z,102758.22
2018-02-24T18:28:58.202Z,102762.95
2018-02-24T18:31:24.586Z,102761.38
2018-02-24T18:33:51.277Z,102761.95
2018-02-24T18:36:17.615Z,102770.71
2018-02-24T18:38:43.977Z,102772.53
2018-02-24T18:41:10.861Z,102761.40
2018-02-24T18:43:37.418Z,102768.30
2018-02-24T18:46:04.072Z,102767.45
2018-02-24T18:48:30.589Z,102774.56
2018-02-24T18:50:56.940Z,102774.49
2018-02-24T18:53:23.274Z,102770.50
2018-02-24T18:55:49.738Z,102772.20
2018-02-24T18:58:16.242Z,102774.12
2018-02-24T19:00:42.681Z,102774.28
2018-02-24T19:03:09.204Z,102776.38
2018-02-24T19:05:35.573Z,102784.40
2018-02-24T19:08:01.960Z,102783.71
2018-02-24T19:10:29.260Z,102787.13
2018-02-24T19:12:55.621Z,102783.55
2018-02-24T19:15:21.970Z,102788.68
2018-02-24T19:17:48.835Z,102787.08
2018-02-24T19:20:16.141Z,102790.66
2018-02-24T19:22:42.873Z,102794.03
2018-02-24T19:25:09.249Z,102794.44
2018-02-24T19:27:35.975Z,102793.78
2018-02-24T19:30:02.381Z,102787.53
2018-02-24T19:32:29.506Z,102797.33
2018-02-24T19:34:55.962Z,102798.74
2018-02-24T19:37:23.132Z,102800.69
2018-02-24T19:39:50.227Z,102805.45
2018-02-24T19:42:16.846Z,102809.76
2018-02-24T19:44:43.346Z,102806.84
2018-02-24T19:47:09.848Z,102811.45
2018-02-24T19:49:36.393Z,102809.91
2018-02-24T19:52:02.740Z,102812.11
2018-02-24T19:54:29.784Z,102815.25
2018-02-24T19:56:56.659Z,102818.27
2018-02-24T19:59:23.753Z,102815.31
2018-02-24T20:01:50.112Z,102812.96
2018-02-24T20:04:16.568Z,102816.31
2018-02-24T20:06:42.941Z,102811.77
2018-02-24T20:09:09.285Z,102817.04
2018-02-24T20:11:36.456Z,102815.16
2018-02-24T20:14:03.030Z,102817.52
2018-02-24T20:16:29.654Z,102828.65
2018-02-24T20:18:56.182Z,102819.74
2018-02-24T20:21:22.539Z,102821.44
2018-02-24T20:23:49.685Z,102817.16
2018-02-24T20:26:16.170Z,102825.98
2018-02-24T20:28:44.094Z,102825.13
2018-02-24T20:31:10.449Z,102831.78
2018-02-24T20:33:37.049Z,102835.24
2018-02-24T20:36:04.339Z,102840.58
2018-02-24T20:38:30.813Z,102838.91
2018-02-24T20:40:57.588Z,102841.39
2018-02-24T20:43:24.736Z,102839.76
2018-02-24T20:45:51.112Z,102839.06
2018-02-24T20:48:17.605Z,102840.47
2018-02-24T20:50:43.961Z,102841.84
2018-02-24T20:53:11.094Z,102842.70
2018-02-24T20:55:37.614Z,102855.03
2018-02-24T20:58:04.136Z,102846.05
2018-02-24T21:00:30.512Z,102853.89
2018-02-24T21:02:57.104Z,102861.68
2018-02-24T21:05:23.460Z,102861.89
2018-02-24T21:07:49.951Z,102863.97
2018-02-24T21:10:17.682Z,102863.50
2018-02-24T21:12:44.241Z,102862.20
2018-02-24T21:15:10.602Z,102856.21
2018-02-24T21:17:37.813Z,102857.34
2018-02-24T21:20:04.242Z,102855.27
2018-02-24T21:22:30.580Z,102859.13
2018-02-24T21:24:57.033Z,102864.81
2018-02-24T21:27:23.772Z,102873.25
2018-02-24T21:29:50.156Z,102864.50
2018-02-24T21:32:17.279Z,102866.89
2018-02-24T21:34:43.752Z,102869.62
2018-02-24T21:37:10.880Z,102872.58
2018-02-24T21:39:37.922Z,102872.80
2018-02-24T21:42:04.962Z,102878.02
2018-02-24T21:44:31.319Z,102875.88
2018-02-24T21:46:57.672Z,102880.70
2018-02-24T21:49:25.002Z,102875.37
2018-02-24T21:51:51.349Z,102886.28
2018-02-24T21:54:17.708Z,102894.95
2018-02-24T21:56:44.949Z,102897.75
2018-02-24T21:59:11.311Z,102895.61
2018-02-24T22:01:38.438Z,102895.20
2018-02-24T22:04:05.057Z,102898.13
2018-02-24T22:06:31.462Z,102898.09
2018-02-24T22:08:58.442Z,102897.63
2018-02-24T22:11:25.357Z,102896.59
2018-02-24T22:13:51.764Z,102899.57
2018-02-24T22:16:18.273Z,102903.09
2018-02-24T22:18:44.627Z,102897.28
2018-02-24T22:21:10.972Z,102900.98
2018-02-24T22:23:37.713Z,102902.45
2018-02-24T22:26:04.118Z,102903.94
2018-02-24T22:28:30.488Z,102902.42
2018-02-24T22:30:57.305Z,102904.94
2018-02-24T22:33:23.700Z,102899.08
2018-02-24T22:35:50.816Z,102900.52
2018-02-24T22:38:17.255Z,102906.59
2018-02-24T22:40:43.597Z,102903.45
2018-02-24T22:43:09.962Z,102907.00
2018-02-24T22:45:37.280Z,102907.38
2018-02-24T22:48:09.837Z,102899.80
2018-02-24T22:50:36.465Z,102907.91
2018-02-24T22:53:03.193Z,102907.41
2018-02-24T22:55:30.739Z,102911.45
2018-02-24T22:57:57.115Z,102918.23
2018-02-24T23:00:28.537Z,102920.13
2018-02-24T23:02:55.745Z,102917.17
2018-02-24T23:05:22.120Z,102903.46
2018-02-24T23:07:48.515Z,102913.16
2018-02-24T23:10:14.969Z,102914.42
2018-02-24T23:12:41.312Z,102911.75
2018-02-24T23:15:07.705Z,102916.64
2018-02-24T23:17:34.439Z,102909.95
2018-02-24T23:20:01.568Z,102910.80
2018-02-24T23:22:27.958Z,102901.77
2018-02-24T23:24:54.644Z,102897.11
2018-02-24T23:27:21.137Z,102897.37
2018-02-24T23:29:48.018Z,102903.99
2018-02-24T23:32:14.369Z,102892.28
2018-02-24T23:34:40.753Z,102903.82
2018-02-24T23:37:07.330Z,102903.70
2018-02-24T23:39:33.706Z,102902.95
2018-02-24T23:42:00.093Z,102906.08
2018-02-24T23:44:26.656Z,102906.55
2018-02-24T23:46:53.004Z,102907.37
2018-02-24T23:49:20.126Z,102903.06
2018-02-24T23:51:46.642Z,102902.62
2018-02-24T23:54:13.006Z,102902.02
2018-02-24T23:56:39.519Z,102913.48
2018-02-24T23:59:05.990Z,102909.73
